Glendale/Luke AFB, Arizona
Current Conditions -  °F | °C
As of 12:18 PM on Thursday 27 Nov 2014 (Local Time) from KLUF Reporting Station
Haze Haze  
Wind Chill: 72°   Ceiling: Unl
Heat Index: 72°   Visibility: 5mi
Dew Point: 27°   Wind: 0mph
Humidity: 19%   Direction: NA
Pressure: 30.15"   Gusts: NA
Location:  33.53°N, 112.38°W
Report Text: KLUF 271918Z AUTO 00000KT 5SM HZ CLR 22/M03 A3015 RMK AO2 $
Loading
Personal Weather Stations






























Interactive Weather Map New forecast layout! Learn more

10-Day Weather Forecast

Advertisements
Track Severe Weather on mobile